CW8374 Weather Reports


time (UTC)temp
F
wind
direction
speed
knots
gust
knots
rain 1hr
in
rain 24hr
in
rain mn
in
humidity
%
barometer
mb
20210414112229 52 51 0.9 2.6 0.00 0.00 0.00 67 1030.7
20210414111416 52 51 1.7 4.3 0.00 0.00 0.00 67 1030.7
20210414110904 53 51 0.9 2.6 0.00 0.00 0.00 67 1030.7
20210414105108 53 40 2.6 5.2 0.00 0.00 0.00 66 1030.8
20210414103906 54 38 2.6 6.1 0.00 0.00 0.00 68 1030.8
20210414103419 53 64 2.6 5.2 0.00 0.00 0.00 68 1030.8
20210414101408 51 32 1.7 5.2 0.00 0.00 0.00 69 1030.9
20210414100908 52 47 0.0 1.7 0.00 0.00 0.00 69 1030.8
20210414100412 51 44 0.0 2.6 0.00 0.00 0.00 69 1030.8
20210414095110 49 30 0.0 0.0 0.00 0.00 0.00 68 1030.8
20210414094412 49 30 0.0 2.6 0.00 0.00 0.00 70 1030.9
20210414093905 48 30 1.7 4.3 0.00 0.00 0.00 71 1030.9
20210414093415 47 47 0.9 2.6 0.00 0.00 0.00 68 1030.9
20210414092128 47 48 0.9 2.6 0.00 0.00 0.00 67 1031.0
20210414091405 47 48 0.0 2.6 0.00 0.00 0.00 68 1030.9
20210414090904 47 48 0.9 4.3 0.00 0.00 0.00 67 1030.9
20210414090408 47 15 0.9 2.6 0.00 0.00 0.00 67 1030.7
20210414084418 46 338 0.0 0.0 0.00 0.00 0.00 65 1030.8
20210414083905 46 313 0.0 1.7 0.00 0.00 0.00 66 1030.8
20210414081412 45 294 0.0 0.0 0.00 0.00 0.00 67 1030.7
20210414080915 45 294 0.0 0.0 0.00 0.00 0.00 67 1030.7
20210414080416 44 294 0.0 0.0 0.00 0.00 0.00 67 1030.7
20210414073912 43 294 0.0 0.0 0.00 0.00 0.00 69 1030.7
20210414073419 43 294 0.0 0.0 0.00 0.00 0.00 69 1030.7
20210414070906 41 294 0.0 0.0 0.00 0.00 0.00 70 1030.6
20210414070414 41 294 0.0 0.0 0.00 0.00 0.00 69 1030.6
20210414065138 41 294 0.0 0.0 0.00 0.00 0.00 70 1030.6
20210414064405 41 294 0.0 0.0 0.00 0.00 0.00 70 1030.6
20210414063907 41 294 0.0 0.0 0.00 0.00 0.00 70 1030.6
20210414063411 40 294 0.0 0.0 0.00 0.00 0.00 70 1030.6
20210414061959 39 294 0.0 0.0 0.00 0.00 0.00 70 1030.4
20210414060904 39 294 0.0 0.0 0.00 0.00 0.00 70 1030.4
20210414060448 39 302 0.0 0.9 0.00 0.00 0.00 70 1030.4
20210414054420 39 307 0.9 1.7 0.00 0.00 0.00 70 1030.1
20210414053910 38 307 0.0 0.0 0.00 0.00 0.00 69 1030.1
20210414051421 39 308 0.0 0.0 0.00 0.00 0.00 70 1030.0
20210414050432 39 308 0.9 1.7 0.00 0.00 0.00 70 1030.0
20210414045210 39 308 0.0 0.0 0.00 0.00 0.00 69 1029.8
20210414044421 39 308 0.0 0.0 0.00 0.00 0.00 69 1029.8
20210414043905 39 308 0.0 0.0 0.00 0.00 0.00 69 1029.8
20210414041411 39 308 0.0 0.0 0.00 0.00 0.00 69 1029.8
20210414040906 40 308 0.0 0.0 0.00 0.00 0.00 69 1029.7
20210414035128 40 308 0.0 0.9 0.00 0.00 0.00 69 1029.7
20210414034411 40 308 0.0 1.7 0.00 0.00 0.00 69 1029.7
20210414033906 40 308 0.9 2.6 0.00 0.00 0.00 69 1029.7
20210414033537 40 308 0.0 2.6 0.00 0.00 0.00 69 1029.7
20210414031410 40 308 0.9 2.6 0.00 0.00 0.00 69 1029.7
20210414025106 40 327 0.9 2.6 0.00 0.00 0.00 68 1029.8
20210414023405 40 333 0.9 2.6 0.00 0.00 0.00 68 1029.9
20210414022131 40 333 0.9 2.6 0.00 0.00 0.00 68 1029.8
20210414020904 40 333 0.0 0.0 0.00 0.00 0.00 68 1029.8
20210414020416 40 333 0.0 0.0 0.00 0.00 0.00 68 1029.8
20210414015145 40 333 0.0 0.0 0.00 0.00 0.00 68 1029.8
20210414014406 40 333 0.0 0.0 0.00 0.00 0.00 68 1029.7
20210414013907 40 333 0.0 0.0 0.00 0.00 0.00 68 1029.7
20210414012024 40 333 0.0 0.0 0.00 0.00 0.00 68 1029.7
20210414011414 40 333 0.0 1.7 0.00 0.00 0.00 68 1029.7
20210414010414 40 333 0.9 2.6 0.00 0.00 0.00 68 1029.7
20210414005345 39 333 0.0 1.7 0.00 0.00 0.00 68 1029.7
20210414004415 39 333 0.0 0.0 0.00 0.00 0.00 67 1029.8
20210414003905 39 333 0.0 0.0 0.00 0.00 0.00 67 1029.8
20210414002022 40 333 0.0 0.0 0.00 0.00 0.00 67 1029.8
20210414001405 40 333 0.9 1.7 0.00 0.00 0.00 67 1029.8
20210414000906 40 333 0.0 0.0 0.00 0.00 0.00 67 1029.8
20210414000417 39 333 0.0 2.6 0.00 0.00 0.00 67 1029.8
20210413235436 39 333 0.0 0.0 0.00 0.00 0.00 67 1029.9
20210413234410 38 333 0.0 0.0 0.00 0.00 0.00 66 1029.8
20210413233907 39 333 0.0 0.0 0.00 0.00 0.00 66 1029.8
20210413233421 39 333 0.0 0.0 0.00 0.00 0.00 66 1029.8
20210413231420 40 333 0.0 0.0 0.00 0.00 0.00 66 1029.8
20210413230904 40 333 0.0 0.0 0.00 0.00 0.00 66 1029.8
20210413230418 40 333 0.0 0.0 0.00 0.00 0.00 66 1029.8
20210413225433 40 333 0.0 0.0 0.00 0.00 0.00 66 1029.9
20210413224524 40 333 0.0 0.0 0.00 0.00 0.00 66 1029.9
20210413223906 40 333 0.0 0.0 0.00 0.00 0.00 66 1029.9
20210413223412 41 333 0.0 0.0 0.00 0.00 0.00 66 1029.9
20210413222204 41 333 0.0 0.0 0.00 0.00 0.00 66 1030.0
20210413221404 41 333 0.0 0.0 0.00 0.00 0.00 66 1029.9
20210413220910 41 333 0.0 0.0 0.00 0.00 0.00 66 1029.9
20210413214409 42 333 0.0 0.0 0.00 0.00 0.00 66 1029.7
20210413213419 42 333 0.0 0.0 0.00 0.00 0.00 66 1029.6
20210413212128 42 333 0.0 0.0 0.00 0.00 0.00 66 1029.6
20210413210912 42 333 0.0 0.0 0.00 0.00 0.00 67 1029.6
20210413210409 43 333 0.0 0.0 0.00 0.00 0.00 67 1029.6
20210413204954 43 333 0.0 1.7 0.00 0.00 0.00 67 1029.6
20210413204406 43 333 0.0 0.0 0.00 0.00 0.00 66 1029.6
20210413203919 43 333 0.0 0.0 0.00 0.00 0.00 67 1029.6
20210413203409 43 333 0.0 0.0 0.00 0.00 0.00 67 1029.6
20210413202122 43 333 0.0 0.0 0.00 0.00 0.00 68 1029.6
20210413200449 44 333 0.0 0.0 0.00 0.00 0.00 68 1029.6
20210413194904 45 333 0.0 0.0 0.00 0.00 0.00 68 1029.6
20210413192234 46 321 1.7 4.3 0.00 0.00 0.00 69 1029.3
20210413191422 46 304 1.7 2.6 0.00 0.00 0.00 69 1029.1
20210413190910 46 300 0.9 2.6 0.00 0.00 0.00 69 1029.1
20210413190417 46 301 1.7 8.7 0.00 0.00 0.00 69 1029.1
20210413183905 47 297 4.3 6.1 0.00 0.00 0.00 70 1029.0
20210413183407 48 298 1.7 7.8 0.00 0.00 0.00 70 1029.0
20210413181409 49 309 4.3 7.8 0.00 0.00 0.00 69 1028.9
20210413180916 49 299 4.3 7.8 0.00 0.00 0.00 69 1028.9
20210413174940 49 295 2.6 5.2 0.00 0.00 0.00 69 1028.8
20210413174410 49 308 4.3 7.8 0.00 0.00 0.00 69 1028.8
20210413173905 49 298 4.3 11.3 0.00 0.00 0.00 69 1028.8
20210413173416 49 299 2.6 8.7 0.00 0.00 0.00 69 1028.8
20210413172219 50 287 4.3 10.4 0.00 0.00 0.00 69 1028.8
20210413171426 50 309 2.6 6.1 0.00 0.00 0.00 69 1028.8
20210413170904 49 275 4.3 10.4 0.00 0.00 0.00 69 1028.8
20210413165107 50 287 7.8 10.4 0.00 0.00 0.00 68 1028.8
20210413164405 50 292 6.1 12.2 0.00 0.00 0.00 68 1028.7
20210413163907 50 300 6.1 10.4 0.00 0.00 0.00 66 1028.7
20210413163412 51 303 6.1 10.4 0.00 0.00 0.00 66 1028.7
20210413162241 52 288 4.3 10.4 0.00 0.00 0.00 63 1028.6
20210413160905 52 311 6.1 10.4 0.00 0.00 0.00 63 1028.7
20210413160454 52 304 5.2 10.4 0.00 0.00 0.00 61 1028.7
20210413153905 52 281 7.0 11.3 0.00 0.00 0.00 58 1028.8
20210413153416 53 308 5.2 10.4 0.00 0.00 0.00 57 1028.8
20210413145345 53 348 4.3 6.1 0.00 0.00 0.00 54 1028.9
20210413144432 53 347 0.0 4.3 0.00 0.00 0.00 54 1029.0
20210413143906 53 26 0.0 0.0 0.00 0.00 0.00 54 1029.0
20210413143415 53 26 0.0 4.3 0.00 0.00 0.00 54 1029.0
20210413140415 54 344 4.3 6.1 0.00 0.00 0.00 52 1029.0
20210413135311 55 37 0.9 2.6 0.00 0.00 0.00 52 1029.1
20210413134415 56 18 0.9 4.3 0.00 0.00 0.00 49 1029.2
20210413133905 56 56 0.0 2.6 0.00 0.00 0.00 53 1029.2
20210413133405 56 48 0.0 6.1 0.00 0.00 0.00 49 1029.3
20210413132052 57 7 1.7 5.2 0.00 0.00 0.00 52 1029.2
20210413131429 56 44 1.7 5.2 0.00 0.00 0.00 52 1029.3
20210413130409 54 338 1.7 7.8 0.00 0.00 0.00 52 1029.4
20210413125704 55 61 0.0 2.6 0.00 0.00 0.00 49 1029.4
20210413124408 56 80 0.9 2.6 0.00 0.00 0.00 51 1029.4
20210413123418 54 85 0.9 4.3 0.00 0.00 0.00 53 1029.4
20210413122449 54 76 1.7 4.3 0.00 0.00 0.00 52 1029.5
20210413120405 54 53 1.7 5.2 0.00 0.00 0.00 52 1029.5
20210413115839 54 52 1.7 4.3 0.00 0.00 0.00 51 1029.5
20210413114414 55 40 1.7 6.1 0.00 0.00 0.00 50 1029.5
20210413113912 55 49 1.7 6.1 0.00 0.00 0.00 51 1029.5
20210413113409 55 31 4.3 8.7 0.00 0.00 0.00 52 1029.6
20210413112419 54 80 1.7 5.2 0.00 0.00 0.00 56 1029.6